Time;durP1;ratioP1;P1;durP2;ratioP2;P2;SDS_P1;SDS_P2;PMS_P1;PMS_P2;Temp;Humidity;BMP_temperature;BMP_pressure;BME280_temperature;BME280_humidity;BME280_pressure;Samples;Min_cycle;Max_cycle;Signal;HPM_P1;HPM_P2
2023/06/09 00:00:40;;;;;;;14.32;8.10;;;11.50;99.90;;;;;;6245997;23;20000;-62
2023/06/09 00:03:07;;;;;;;12.50;7.55;;;11.50;99.90;;;;;;6244852;23;20020;-62
2023/06/09 00:05:33;;;;;;;13.20;7.13;;;11.50;99.90;;;;;;6245445;23;20004;-61
2023/06/09 00:08:00;;;;;;;10.57;6.82;;;11.50;99.90;;;;;;6261131;22;20011;-62
2023/06/09 00:10:26;;;;;;;11.88;6.18;;;11.50;99.90;;;;;;6276902;22;19995;-62
2023/06/09 00:12:52;;;;;;;11.63;6.50;;;11.40;99.90;;;;;;6276590;22;20008;-62
2023/06/09 00:15:18;;;;;;;15.05;7.38;;;11.40;99.90;;;;;;6276622;22;20003;-62
2023/06/09 00:17:45;;;;;;;19.42;6.55;;;11.40;99.90;;;;;;6277224;22;20046;-62
2023/06/09 00:20:12;;;;;;;13.00;7.78;;;11.30;99.90;;;;;;6277178;22;19991;-62
2023/06/09 00:22:42;;;;;;;13.45;5.90;;;11.30;99.90;;;;;;6276768;22;19991;-61
2023/06/09 00:25:12;;;;;;;;;;;11.30;99.90;;;;;;6277128;22;20057;-62
2023/06/09 00:27:43;;;;;;;13.80;6.50;;;11.30;99.90;;;;;;6276543;22;19902;-61
2023/06/09 00:30:10;;;;;;;12.20;6.93;;;11.30;99.90;;;;;;6275661;22;20402;-62
2023/06/09 00:32:36;;;;;;;10.57;6.38;;;11.30;99.90;;;;;;6276188;22;20004;-61
2023/06/09 00:35:03;;;;;;;15.00;7.65;;;11.20;99.90;;;;;;6276114;22;20035;-61
2023/06/09 00:37:28;;;;;;;18.73;7.88;;;11.20;99.90;;;;;;6275945;22;20033;-61
2023/06/09 00:39:55;;;;;;;14.50;6.93;;;11.30;99.90;;;;;;6275765;22;20031;-61
2023/06/09 00:42:21;;;;;;;15.95;8.13;;;11.20;99.90;;;;;;6276076;22;20540;-61
2023/06/09 00:44:46;;;;;;;15.57;8.77;;;11.20;99.90;;;;;;6276018;22;20039;-61
2023/06/09 00:47:12;;;;;;;14.57;8.48;;;11.20;99.90;;;;;;6275759;22;20000;-61
2023/06/09 00:49:39;;;;;;;17.15;10.27;;;11.20;99.90;;;;;;6275901;22;20421;-61
2023/06/09 00:52:06;;;;;;;17.17;9.60;;;11.20;99.90;;;;;;6276171;22;20027;-62
2023/06/09 00:54:31;;;;;;;16.40;10.05;;;11.10;99.90;;;;;;6275847;22;20045;-61
2023/06/09 00:56:57;;;;;;;15.23;9.30;;;11.10;99.90;;;;;;6276074;22;19996;-61
2023/06/09 00:59:25;;;;;;;18.38;10.00;;;11.10;99.90;;;;;;6275339;22;20129;-61
2023/06/09 01:01:51;;;;;;;16.88;9.77;;;11.10;99.90;;;;;;6275921;22;20019;-62
2023/06/09 01:04:18;;;;;;;14.88;9.82;;;11.10;99.90;;;;;;6276046;22;19999;-61
2023/06/09 01:06:56;;;;;;;18.63;11.10;;;11.00;99.90;;;;;;6248341;22;20057;-61
2023/06/09 01:09:43;;;;;;;15.52;9.82;;;11.00;99.90;;;;;;6275557;22;20132;-61
2023/06/09 01:12:33;;;;;;;17.33;9.30;;;10.90;99.90;;;;;;6275670;22;20038;-61
2023/06/09 01:15:20;;;;;;;18.60;11.07;;;11.00;99.90;;;;;;6248789;22;20338;-61
2023/06/09 01:17:48;;;;;;;26.00;11.63;;;10.90;99.90;;;;;;6275864;22;20533;-61
2023/06/09 01:20:19;;;;;;;21.50;10.77;;;11.00;99.90;;;;;;6275548;22;20011;-61
2023/06/09 01:22:52;;;;;;;20.38;11.00;;;10.90;99.90;;;;;;6248472;22;20000;-61
2023/06/09 01:25:20;;;;;;;20.85;10.75;;;11.00;99.90;;;;;;6275525;22;20007;-61
2023/06/09 01:27:49;;;;;;;18.40;10.48;;;11.00;99.90;;;;;;6275949;22;20074;-61
2023/06/09 01:30:15;;;;;;;18.00;9.68;;;11.00;99.90;;;;;;6248567;22;20059;-62
2023/06/09 01:32:41;;;;;;;16.10;9.60;;;11.00;99.90;;;;;;6275476;22;20000;-61
2023/06/09 01:35:09;;;;;;;20.35;8.70;;;10.90;99.90;;;;;;6274987;22;20055;-62
2023/06/09 01:37:35;;;;;;;18.38;8.65;;;10.80;99.90;;;;;;6275463;22;19999;-61
2023/06/09 01:40:01;;;;;;;17.15;8.23;;;10.80;99.90;;;;;;6275550;22;19996;-61
2023/06/09 01:42:27;;;;;;;15.15;7.97;;;10.80;99.90;;;;;;6275060;22;19992;-61
2023/06/09 01:44:53;;;;;;;18.08;7.15;;;10.80;99.90;;;;;;6275461;22;19996;-61
2023/06/09 01:47:19;;;;;;;13.02;8.02;;;10.80;99.90;;;;;;6275128;22;20077;-61
2023/06/09 01:50:03;;;;;;;15.80;8.05;;;10.80;99.90;;;;;;6275197;22;19996;-61
2023/06/09 01:52:49;;;;;;;14.10;7.40;;;10.70;99.90;;;;;;6275422;22;20083;-61
2023/06/09 01:55:19;;;;;;;13.52;7.00;;;10.80;99.90;;;;;;6275386;22;20000;-61
2023/06/09 01:57:51;;;;;;;13.45;7.45;;;10.80;99.90;;;;;;6275269;22;20066;-61
2023/06/09 02:00:17;;;;;;;17.92;7.57;;;10.80;99.90;;;;;;6274831;22;20067;-61
2023/06/09 02:02:46;;;;;;;14.18;7.68;;;10.80;99.90;;;;;;6248267;22;20405;-62
2023/06/09 02:05:15;;;;;;;12.55;7.78;;;10.80;99.90;;;;;;6274875;22;20368;-61
2023/06/09 02:07:44;;;;;;;17.65;8.05;;;10.80;99.90;;;;;;6274817;22;20007;-61
2023/06/09 02:10:12;;;;;;;13.05;8.20;;;10.80;99.90;;;;;;6274917;22;20015;-61
2023/06/09 02:12:37;;;;;;;14.75;8.90;;;10.80;99.90;;;;;;6275051;22;20078;-61
2023/06/09 02:15:04;;;;;;;17.58;8.52;;;10.70;99.90;;;;;;6275689;22;20030;-62
2023/06/09 02:17:32;;;;;;;14.73;8.05;;;10.70;99.90;;;;;;6275342;22;19996;-61
2023/06/09 02:19:58;;;;;;;14.77;9.50;;;10.60;99.90;;;;;;6275375;22;20405;-61
2023/06/09 02:22:24;;;;;;;17.23;9.63;;;10.60;99.90;;;;;;6274855;22;20023;-62
2023/06/09 02:24:50;;;;;;;18.33;10.00;;;10.60;99.90;;;;;;6274971;22;20007;-61
2023/06/09 02:27:16;;;;;;;17.10;9.70;;;10.60;99.90;;;;;;6274782;22;20505;-62
2023/06/09 02:29:42;;;;;;;18.00;9.68;;;10.60;99.90;;;;;;6274848;22;20022;-61
2023/06/09 02:32:08;;;;;;;19.00;10.77;;;10.50;99.90;;;;;;6274688;22;19999;-61
2023/06/09 02:34:34;;;;;;;19.90;10.18;;;10.50;99.90;;;;;;6275267;22;19996;-61
2023/06/09 02:37:00;;;;;;;21.92;11.13;;;10.50;99.90;;;;;;6275724;22;20054;-61
2023/06/09 02:39:26;;;;;;;17.90;10.15;;;10.40;99.90;;;;;;6275258;22;19999;-61
2023/06/09 02:41:52;;;;;;;17.77;10.70;;;10.40;99.90;;;;;;6275294;22;20286;-61
2023/06/09 02:44:18;;;;;;;19.98;9.93;;;10.50;99.90;;;;;;6275186;22;19996;-61
2023/06/09 02:46:44;;;;;;;19.98;10.45;;;10.50;99.90;;;;;;6275051;22;19996;-61
2023/06/09 02:49:10;;;;;;;19.27;10.23;;;10.40;99.90;;;;;;6274964;22;19999;-61
2023/06/09 02:51:37;;;;;;;17.77;10.20;;;10.40;99.90;;;;;;6274358;22;20309;-62
2023/06/09 02:54:06;;;;;;;17.35;10.07;;;10.40;99.90;;;;;;6274739;22;20049;-61
2023/06/09 02:56:31;;;;;;;21.77;10.45;;;10.30;99.90;;;;;;6274992;22;20529;-61
2023/06/09 02:58:57;;;;;;;24.83;11.18;;;10.30;99.90;;;;;;6274796;22;20000;-61
2023/06/09 03:01:23;;;;;;;23.92;11.68;;;10.30;99.90;;;;;;6274938;22;20006;-61
2023/06/09 03:03:49;;;;;;;22.08;10.95;;;10.30;99.90;;;;;;6275157;22;19995;-61
2023/06/09 03:06:16;;;;;;;21.85;11.52;;;10.20;99.90;;;;;;6274838;22;20006;-62
2023/06/09 03:08:43;;;;;;;21.30;12.02;;;10.20;99.90;;;;;;6247920;22;20039;-61
2023/06/09 03:11:09;;;;;;;23.23;12.50;;;10.10;99.90;;;;;;6275122;22;20021;-62
2023/06/09 03:13:35;;;;;;;22.88;12.75;;;10.20;99.90;;;;;;6275369;22;20283;-61
2023/06/09 03:16:02;;;;;;;26.48;13.57;;;10.20;99.90;;;;;;6275149;22;20007;-63
2023/06/09 03:18:29;;;;;;;28.10;13.00;;;10.20;99.90;;;;;;6275009;22;20002;-61
2023/06/09 03:20:55;;;;;;;23.55;13.48;;;10.20;99.90;;;;;;6274882;22;19992;-61
2023/06/09 03:23:21;;;;;;;26.70;13.32;;;10.10;99.90;;;;;;6276221;22;20002;-61
2023/06/09 03:25:51;;;;;;;29.80;14.55;;;10.10;99.90;;;;;;6249821;22;20037;-61
2023/06/09 03:28:17;;;;;;;25.00;14.93;;;10.10;99.90;;;;;;6276881;22;19992;-62
2023/06/09 03:30:43;;;;;;;27.17;14.77;;;10.20;99.90;;;;;;6276224;22;20071;-62
2023/06/09 03:33:11;;;;;;;32.25;14.57;;;10.20;99.90;;;;;;6276935;22;20425;-62
2023/06/09 03:35:37;;;;;;;23.20;12.98;;;10.20;99.90;;;;;;6276404;22;20003;-62
2023/06/09 03:38:02;;;;;;;23.90;13.48;;;10.20;99.90;;;;;;6276873;22;20088;-63
2023/06/09 03:40:28;;;;;;;24.20;12.50;;;10.20;99.90;;;;;;6277006;22;20074;-63
2023/06/09 03:42:54;;;;;;;23.27;11.65;;;10.20;99.90;;;;;;6276813;22;20010;-62
2023/06/09 03:45:19;;;;;;;23.00;13.18;;;10.20;99.90;;;;;;6276551;22;20421;-62
2023/06/09 03:47:45;;;;;;;21.20;12.75;;;10.30;99.90;;;;;;6277335;22;20062;-62
2023/06/09 03:50:11;;;;;;;34.25;13.38;;;10.20;99.90;;;;;;6249941;22;20090;-62
2023/06/09 03:52:37;;;;;;;27.80;13.70;;;10.20;99.90;;;;;;6276639;22;19991;-60
2023/06/09 03:55:02;;;;;;;26.73;14.13;;;10.30;99.90;;;;;;6276768;22;20038;-61
2023/06/09 03:57:28;;;;;;;26.63;15.07;;;10.30;99.90;;;;;;6276445;22;20093;-61
2023/06/09 03:59:54;;;;;;;25.85;14.70;;;10.30;99.90;;;;;;6277286;22;20370;-61
2023/06/09 04:02:19;;;;;;;25.05;14.70;;;10.30;99.90;;;;;;6277481;22;20088;-61
2023/06/09 04:04:45;;;;;;;27.25;14.73;;;10.30;99.90;;;;;;6277220;22;20373;-61
2023/06/09 04:07:11;;;;;;;28.48;13.88;;;10.30;99.90;;;;;;6276414;22;20011;-61
2023/06/09 04:09:37;;;;;;;23.85;13.93;;;10.30;99.90;;;;;;6276696;22;19996;-61
2023/06/09 04:12:03;;;;;;;26.90;14.98;;;10.30;99.90;;;;;;6276667;22;20045;-62
2023/06/09 04:14:28;;;;;;;33.17;15.82;;;10.30;99.90;;;;;;6276128;22;20310;-62
2023/06/09 04:16:54;;;;;;;29.42;15.13;;;10.30;99.90;;;;;;6274863;22;20003;-62
2023/06/09 04:19:20;;;;;;;23.35;13.65;;;10.20;99.90;;;;;;6276114;22;19988;-62
2023/06/09 04:21:46;;;;;;;31.77;14.10;;;10.20;99.90;;;;;;6275953;22;20313;-61
2023/06/09 04:24:14;;;;;;;20.00;12.20;;;10.20;99.90;;;;;;6276007;22;19996;-62
2023/06/09 04:26:40;;;;;;;20.35;11.85;;;10.20;99.90;;;;;;6276192;22;20007;-62
2023/06/09 04:29:09;;;;;;;24.52;12.00;;;10.20;99.90;;;;;;6275989;22;20016;-62
2023/06/09 04:31:37;;;;;;;20.08;12.27;;;10.20;99.90;;;;;;6276079;22;20075;-62
2023/06/09 04:34:09;;;;;;;20.35;10.25;;;10.20;99.90;;;;;;6275817;22;20010;-62
2023/06/09 04:36:39;;;;;;;16.35;10.05;;;10.10;99.90;;;;;;6276722;22;20469;-62
2023/06/09 04:39:09;;;;;;;22.05;8.95;;;10.10;99.90;;;;;;6276218;22;19999;-61
2023/06/09 04:41:37;;;;;;;18.83;8.65;;;10.10;99.90;;;;;;6276330;22;20016;-62
2023/06/09 04:44:05;;;;;;;20.02;10.13;;;10.10;99.90;;;;;;6275810;22;20320;-62
2023/06/09 04:46:40;;;;;;;16.10;9.57;;;10.10;99.90;;;;;;6276052;22;20010;-62
2023/06/09 04:49:09;;;;;;;23.88;9.40;;;10.20;99.90;;;;;;6276161;22;20023;-62
2023/06/09 04:51:46;;;;;;;13.80;7.35;;;10.20;99.90;;;;;;6275902;22;19995;-62
2023/06/09 04:54:13;;;;;;;14.00;7.03;;;10.20;99.90;;;;;;6276092;22;20330;-62
2023/06/09 04:56:40;;;;;;;11.63;6.65;;;10.20;99.90;;;;;;6275918;22;20010;-62
2023/06/09 04:59:07;;;;;;;13.20;6.60;;;10.20;99.90;;;;;;6276161;22;20445;-62
2023/06/09 05:01:33;;;;;;;12.80;6.07;;;10.20;99.90;;;;;;6275930;22;20011;-62
2023/06/09 05:04:00;;;;;;;14.18;6.47;;;10.20;99.90;;;;;;6276717;22;19995;-62
2023/06/09 05:06:26;;;;;;;10.43;6.68;;;10.30;99.90;;;;;;6276784;22;20061;-62
2023/06/09 05:08:51;;;;;;;12.23;5.50;;;10.20;99.90;;;;;;6276598;22;20015;-62
2023/06/09 05:11:18;;;;;;;16.92;6.45;;;10.30;99.90;;;;;;6276029;22;20067;-62
2023/06/09 05:13:44;;;;;;;11.95;6.60;;;10.30;99.90;;;;;;6276080;22;20099;-62
2023/06/09 05:16:15;;;;;;;11.35;6.10;;;10.30;99.90;;;;;;6275222;22;20065;-62
2023/06/09 05:18:42;;;;;;;12.02;6.55;;;10.40;99.90;;;;;;6275127;22;19992;-61
2023/06/09 05:21:07;;;;;;;17.10;6.53;;;10.40;99.90;;;;;;6275759;22;20019;-62
2023/06/09 05:23:33;;;;;;;12.32;6.15;;;10.40;99.90;;;;;;6275150;22;19996;-61
2023/06/09 05:26:00;;;;;;;10.23;6.20;;;10.50;99.90;;;;;;6274770;22;20016;-61
2023/06/09 05:28:26;;;;;;;10.20;6.05;;;10.50;99.90;;;;;;6274894;22;20408;-61
2023/06/09 05:30:52;;;;;;;13.10;7.00;;;10.60;99.90;;;;;;6274176;22;20014;-61
2023/06/09 05:33:17;;;;;;;14.55;5.55;;;10.70;99.90;;;;;;6275522;22;20390;-61
2023/06/09 05:35:43;;;;;;;12.35;5.95;;;10.70;99.90;;;;;;6275744;22;20118;-61
2023/06/09 05:38:09;;;;;;;13.88;5.90;;;10.70;99.90;;;;;;6274054;22;19995;-61
2023/06/09 05:40:35;;;;;;;12.35;5.85;;;10.70;99.90;;;;;;6275566;22;20066;-62
2023/06/09 05:43:00;;;;;;;13.15;6.28;;;10.80;99.90;;;;;;6275297;22;20341;-61
2023/06/09 05:45:26;;;;;;;10.95;5.97;;;10.80;99.90;;;;;;6275189;22;20000;-61
2023/06/09 05:47:51;;;;;;;15.90;6.25;;;10.90;99.90;;;;;;6275537;22;20410;-61
2023/06/09 05:50:17;;;;;;;12.23;5.80;;;10.90;99.90;;;;;;6275695;22;20066;-61
2023/06/09 05:52:43;;;;;;;15.38;6.60;;;11.00;99.90;;;;;;6275673;22;20003;-61
2023/06/09 05:55:09;;;;;;;12.35;6.40;;;11.00;99.90;;;;;;6275422;22;20406;-62
2023/06/09 05:57:34;;;;;;;16.98;6.55;;;11.00;99.90;;;;;;6275046;22;20046;-60
2023/06/09 06:00:07;;;;;;;16.38;6.57;;;11.10;99.90;;;;;;6273722;22;20006;-61
2023/06/09 06:02:33;;;;;;;15.43;6.70;;;11.10;99.90;;;;;;6274804;22;19992;-61
2023/06/09 06:04:58;;;;;;;12.00;6.38;;;11.10;99.90;;;;;;6248064;22;20014;-61
2023/06/09 06:07:24;;;;;;;22.10;8.63;;;11.10;99.90;;;;;;6274965;22;20012;-61
2023/06/09 06:09:50;;;;;;;12.05;5.80;;;11.20;99.90;;;;;;6275057;22;20006;-61
2023/06/09 06:12:15;;;;;;;17.02;6.60;;;11.30;99.90;;;;;;6274620;22;20000;-61
2023/06/09 06:14:41;;;;;;;16.25;6.68;;;11.30;99.90;;;;;;6272984;22;20353;-62
2023/06/09 06:17:07;;;;;;;13.10;5.28;;;11.30;99.90;;;;;;6273527;22;20007;-61
2023/06/09 06:19:32;;;;;;;14.02;5.53;;;11.40;99.90;;;;;;6274301;22;20003;-61
2023/06/09 06:21:58;;;;;;;12.00;5.57;;;11.40;99.90;;;;;;6273819;22;19996;-61
2023/06/09 06:24:23;;;;;;;9.88;4.85;;;11.40;99.90;;;;;;6275001;22;19999;-62
2023/06/09 06:26:49;;;;;;;10.25;5.10;;;11.50;99.90;;;;;;6274304;22;20219;-62
2023/06/09 06:29:15;;;;;;;14.80;5.15;;;11.50;99.90;;;;;;6273385;22;19996;-62
2023/06/09 06:31:40;;;;;;;10.98;5.18;;;11.60;99.90;;;;;;6273762;22;20000;-62
2023/06/09 06:34:06;;;;;;;12.40;5.05;;;11.60;99.90;;;;;;6274008;22;19999;-60
2023/06/09 06:36:32;;;;;;;8.25;4.70;;;11.60;99.90;;;;;;6274280;22;19999;-61
2023/06/09 06:38:57;;;;;;;13.55;4.80;;;11.70;99.90;;;;;;6273667;22;20053;-61
2023/06/09 06:41:23;;;;;;;15.18;4.80;;;11.70;99.90;;;;;;6274067;22;20019;-63
2023/06/09 06:43:50;;;;;;;13.18;4.47;;;11.80;99.90;;;;;;6274651;22;20079;-61
2023/06/09 06:46:17;;;;;;;12.60;4.68;;;11.90;99.90;;;;;;6276074;22;20052;-62
2023/06/09 06:48:43;;;;;;;10.88;4.53;;;11.90;99.90;;;;;;6275750;22;19996;-62
2023/06/09 06:51:09;;;;;;;9.20;4.57;;;12.00;99.90;;;;;;6275898;22;19995;-62
2023/06/09 06:53:36;;;;;;;11.75;5.32;;;12.00;99.90;;;;;;6275301;22;20008;-61
2023/06/09 06:56:02;;;;;;;8.07;4.57;;;12.00;99.90;;;;;;6276168;22;20426;-61
2023/06/09 06:58:28;;;;;;;8.85;4.55;;;12.10;99.90;;;;;;6275284;22;20018;-62
2023/06/09 07:00:57;;;;;;;7.80;4.38;;;12.10;99.90;;;;;;6275423;22;19995;-62
2023/06/09 07:03:26;;;;;;;9.80;4.80;;;12.10;99.90;;;;;;6276033;22;19995;-62
2023/06/09 07:05:53;;;;;;;12.35;5.45;;;12.20;99.90;;;;;;6275657;22;20195;-62
2023/06/09 07:08:18;;;;;;;12.25;5.32;;;12.30;99.90;;;;;;6275151;22;20014;-62
2023/06/09 07:10:44;;;;;;;11.77;5.38;;;12.30;99.90;;;;;;6275729;22;20003;-62
2023/06/09 07:13:10;;;;;;;11.82;5.13;;;12.40;99.90;;;;;;6276059;22;20356;-62
2023/06/09 07:15:38;;;;;;;13.35;5.20;;;12.40;99.90;;;;;;6275868;22;20079;-62
2023/06/09 07:18:06;;;;;;;14.55;5.00;;;12.50;99.90;;;;;;6275800;22;20012;-62
2023/06/09 07:20:32;;;;;;;8.65;4.55;;;12.50;99.90;;;;;;6275786;22;20003;-62
2023/06/09 07:22:58;;;;;;;9.73;4.90;;;12.50;99.90;;;;;;6275752;22;20019;-62
2023/06/09 07:25:24;;;;;;;11.63;5.15;;;12.60;99.90;;;;;;6275758;22;20008;-62
2023/06/09 07:27:49;;;;;;;10.23;4.85;;;12.60;99.90;;;;;;6276128;22;20306;-62
2023/06/09 07:30:15;;;;;;;15.77;5.63;;;12.70;99.90;;;;;;6276180;22;20071;-62
2023/06/09 07:32:41;;;;;;;10.07;5.35;;;12.80;99.90;;;;;;6275729;22;20000;-62
2023/06/09 07:35:07;;;;;;;9.98;5.68;;;12.90;99.90;;;;;;6274230;22;20000;-62
2023/06/09 07:37:36;;;;;;;9.73;4.47;;;13.00;99.90;;;;;;6275370;22;19992;-62
2023/06/09 07:40:04;;;;;;;12.10;5.47;;;13.00;99.90;;;;;;6274099;22;20111;-62
2023/06/09 07:42:29;;;;;;;11.30;4.70;;;13.20;99.90;;;;;;6275488;22;20007;-62
2023/06/09 07:44:55;;;;;;;14.35;4.35;;;13.20;99.90;;;;;;6247843;22;19996;-62
2023/06/09 07:47:21;;;;;;;12.75;4.50;;;13.20;99.90;;;;;;6273486;22;20049;-62
2023/06/09 07:49:46;;;;;;;11.00;4.05;;;13.30;99.90;;;;;;6275219;22;19995;-62
2023/06/09 07:52:12;;;;;;;12.18;4.50;;;13.30;99.90;;;;;;6272333;22;19992;-63
2023/06/09 07:54:38;;;;;;;11.32;4.47;;;13.40;99.90;;;;;;6274724;22;20000;-62
2023/06/09 07:57:04;;;;;;;10.85;4.32;;;13.40;99.90;;;;;;6275158;22;20031;-62
2023/06/09 07:59:31;;;;;;;6.53;3.58;;;13.60;99.90;;;;;;6274725;22;20061;-63
2023/06/09 08:01:56;;;;;;;16.23;4.55;;;13.70;99.90;;;;;;6275149;22;19996;-63
2023/06/09 08:04:22;;;;;;;12.07;4.75;;;13.70;99.90;;;;;;6273763;22;20138;-64
2023/06/09 08:06:48;;;;;;;9.07;4.32;;;13.80;99.90;;;;;;6274487;22;20428;-63
2023/06/09 08:09:14;;;;;;;12.70;4.80;;;13.80;99.90;;;;;;6274714;22;20011;-64
2023/06/09 08:11:40;;;;;;;9.13;3.75;;;13.90;99.90;;;;;;6277500;22;20015;-63
2023/06/09 08:14:06;;;;;;;10.30;4.10;;;14.00;99.90;;;;;;6276558;22;19996;-63
2023/06/09 08:16:32;;;;;;;10.35;4.00;;;14.00;99.90;;;;;;6276900;22;20301;-64
2023/06/09 08:18:58;;;;;;;16.80;4.20;;;14.10;99.90;;;;;;6276680;22;20027;-63
2023/06/09 08:21:23;;;;;;;8.15;3.70;;;14.20;99.90;;;;;;6276805;22;19992;-63
2023/06/09 08:23:50;;;;;;;9.60;3.33;;;14.40;99.90;;;;;;6276891;22;20002;-63
2023/06/09 08:26:16;;;;;;;11.18;4.20;;;14.50;99.90;;;;;;6276837;22;20019;-63
2023/06/09 08:28:41;;;;;;;10.05;4.43;;;14.60;99.90;;;;;;6249192;22;20007;-63
2023/06/09 08:31:11;;;;;;;11.48;4.28;;;14.70;99.90;;;;;;6276697;22;20484;-62
2023/06/09 08:33:37;;;;;;;11.38;4.28;;;14.80;99.90;;;;;;6277141;22;19995;-63
2023/06/09 08:36:03;;;;;;;13.60;4.60;;;15.00;99.90;;;;;;6276296;22;20091;-64
2023/06/09 08:38:33;;;;;;;10.30;4.80;;;15.00;99.20;;;;;;6276073;22;20418;-64
2023/06/09 08:41:05;;;;;;;14.43;4.83;;;15.00;98.80;;;;;;6275710;22;20586;-64
2023/06/09 08:43:31;;;;;;;9.77;4.72;;;15.00;98.50;;;;;;6275791;22;20003;-63
2023/06/09 08:46:00;;;;;;;12.63;4.70;;;15.00;98.50;;;;;;6275563;22;20415;-63
2023/06/09 08:48:29;;;;;;;9.23;4.22;;;15.10;98.40;;;;;;6276203;22;19987;-63
2023/06/09 08:50:55;;;;;;;10.15;4.10;;;15.20;98.00;;;;;;6276830;22;20047;-65
2023/06/09 08:53:21;;;;;;;8.75;4.57;;;15.30;97.80;;;;;;6248081;22;20084;-63
2023/06/09 08:55:48;;;;;;;8.30;4.40;;;15.40;97.50;;;;;;6275469;22;20410;-64
2023/06/09 08:58:15;;;;;;;12.93;4.63;;;15.50;96.80;;;;;;6275406;22;20017;-63
2023/06/09 09:00:41;;;;;;;13.75;5.05;;;15.60;96.60;;;;;;6275346;22;20402;-63
2023/06/09 09:03:07;;;;;;;8.75;4.15;;;15.70;96.30;;;;;;6276359;22;19995;-63
2023/06/09 09:05:33;;;;;;;12.30;4.60;;;15.80;95.70;;;;;;6276297;22;20000;-64
2023/06/09 09:07:59;;;;;;;7.85;4.10;;;15.90;95.00;;;;;;6276328;22;20008;-63
2023/06/09 09:10:25;;;;;;;11.63;4.97;;;15.90;94.60;;;;;;6276694;22;19996;-64
2023/06/09 09:12:54;;;;;;;12.68;4.80;;;16.10;94.50;;;;;;6276286;22;20006;-63
2023/06/09 09:15:25;;;;;;;13.27;6.45;;;16.30;94.10;;;;;;6276730;22;20006;-63
2023/06/09 09:17:51;;;;;;;10.80;5.43;;;16.30;93.30;;;;;;6276578;22;20059;-63
2023/06/09 09:20:17;;;;;;;8.65;5.28;;;16.50;92.80;;;;;;6276317;22;20018;-62
2023/06/09 09:22:47;;;;;;;14.38;5.97;;;16.50;92.20;;;;;;6276442;22;20004;-64
2023/06/09 09:25:27;;;;;;;12.73;5.53;;;16.50;91.80;;;;;;6276616;22;20008;-64
2023/06/09 09:28:10;;;;;;;9.65;5.43;;;16.50;91.60;;;;;;6276219;22;19999;-64
2023/06/09 09:30:43;;;;;;;13.93;6.45;;;16.70;91.50;;;;;;6249036;22;20049;-65
2023/06/09 09:33:15;;;;;;;12.02;5.72;;;16.80;91.10;;;;;;6276385;22;20000;-63
2023/06/09 09:35:45;;;;;;;12.63;5.80;;;16.80;90.70;;;;;;6275892;22;20322;-64
2023/06/09 09:38:31;;;;;;;11.83;6.00;;;16.90;90.60;;;;;;6276506;22;20034;-64
2023/06/09 09:40:59;;;;;;;15.63;6.25;;;16.90;90.30;;;;;;6274532;22;20030;-64
2023/06/09 09:43:28;;;;;;;16.15;6.50;;;16.90;90.20;;;;;;6276418;22;20398;-63
2023/06/09 09:45:55;;;;;;;14.07;5.88;;;16.90;90.20;;;;;;6276345;22;20000;-66
2023/06/09 09:48:24;;;;;;;13.00;5.82;;;17.10;90.30;;;;;;6276328;22;19988;-64
2023/06/09 09:50:57;;;;;;;13.38;5.80;;;17.10;90.10;;;;;;6276679;22;20433;-64
2023/06/09 09:53:24;;;;;;;15.40;5.97;;;17.30;90.10;;;;;;6276409;22;20023;-64
2023/06/09 09:55:52;;;;;;;15.20;5.95;;;17.40;89.40;;;;;;6276441;22;20000;-63
2023/06/09 09:58:19;;;;;;;13.73;5.80;;;17.50;89.20;;;;;;6249231;22;20004;-63
2023/06/09 10:00:46;;;;;;;12.70;5.95;;;17.70;88.80;;;;;;6275816;22;20488;-63
2023/06/09 10:03:18;;;;;;;14.95;6.13;;;17.90;88.00;;;;;;6276153;22;20481;-63
2023/06/09 10:05:49;;;;;;;10.48;5.10;;;18.00;87.30;;;;;;6275949;22;20000;-64
2023/06/09 10:08:21;;;;;;;9.38;5.45;;;18.10;86.90;;;;;;6248505;22;20039;-64
2023/06/09 10:10:49;;;;;;;15.02;6.70;;;18.30;86.30;;;;;;6275884;22;19996;-63
2023/06/09 10:13:15;;;;;;;14.20;5.60;;;18.40;85.30;;;;;;6249048;22;20423;-63
2023/06/09 10:15:44;;;;;;;14.55;5.85;;;18.50;84.60;;;;;;6276082;22;20088;-63
2023/06/09 10:18:12;;;;;;;11.15;5.53;;;18.60;83.90;;;;;;6275761;22;20000;-63
2023/06/09 10:20:41;;;;;;;12.52;5.90;;;18.80;83.30;;;;;;6275744;22;20003;-63
2023/06/09 10:23:07;;;;;;;9.80;5.57;;;18.90;82.80;;;;;;6276034;22;20049;-63
2023/06/09 10:25:33;;;;;;;12.30;5.55;;;19.00;82.70;;;;;;6275702;22;20087;-63
2023/06/09 10:27:59;;;;;;;10.85;5.55;;;19.10;82.10;;;;;;6274972;22;20023;-64
2023/06/09 10:30:25;;;;;;;14.07;5.22;;;19.30;81.90;;;;;;6274985;22;20035;-64
2023/06/09 10:32:58;;;;;;;18.20;5.80;;;19.50;81.30;;;;;;6275085;22;19995;-64
2023/06/09 10:35:28;;;;;;;10.50;5.90;;;19.60;80.20;;;;;;6275657;22;20049;-64
2023/06/09 10:37:56;;;;;;;12.10;6.45;;;19.70;79.60;;;;;;6275051;22;20002;-63
2023/06/09 10:40:37;;;;;;;11.98;6.60;;;19.70;78.50;;;;;;6275255;22;20072;-64
2023/06/09 10:43:39;;;;;;;11.13;6.18;;;19.70;78.40;;;;;;6275402;22;19991;-64
2023/06/09 10:46:05;;;;;;;14.10;6.45;;;19.80;78.10;;;;;;6274796;22;20012;-64
2023/06/09 10:48:42;;;;;;;14.80;5.65;;;19.90;77.70;;;;;;6275281;22;20071;-63
2023/06/09 10:51:26;;;;;;;10.52;5.50;;;20.00;77.20;;;;;;6275523;22;20302;-64
2023/06/09 10:54:12;;;;;;;12.98;6.55;;;20.20;77.00;;;;;;6275731;22;20031;-64
2023/06/09 10:56:40;;;;;;;13.68;6.63;;;20.30;76.30;;;;;;6275651;22;20027;-64
2023/06/09 10:59:26;;;;;;;13.30;6.45;;;20.30;75.90;;;;;;6276010;22;20341;-65
2023/06/09 11:02:04;;;;;;;16.05;5.75;;;20.40;75.50;;;;;;6275270;22;20030;-64
2023/06/09 11:04:41;;;;;;;17.77;6.20;;;20.70;75.20;;;;;;6275964;22;20039;-65
2023/06/09 11:07:20;;;;;;;14.18;6.40;;;20.80;74.00;;;;;;6275721;22;20008;-64
2023/06/09 11:09:49;;;;;;;11.05;6.10;;;20.80;72.90;;;;;;6276164;22;19999;-65
2023/06/09 11:12:26;;;;;;;11.77;5.45;;;20.90;72.50;;;;;;6275716;22;20414;-66
2023/06/09 11:14:59;;;;;;;13.23;6.53;;;20.80;71.60;;;;;;6274832;22;20004;-66
2023/06/09 11:17:45;;;;;;;12.40;6.60;;;20.80;71.80;;;;;;6275920;22;20059;-66
2023/06/09 11:20:11;;;;;;;10.60;5.85;;;20.80;72.00;;;;;;6275790;22;19996;-65
2023/06/09 11:22:43;;;;;;;12.38;5.72;;;21.00;72.70;;;;;;6275266;22;20476;-64
2023/06/09 11:25:30;;;;;;;12.35;6.03;;;21.00;71.30;;;;;;6274075;22;20007;-64
2023/06/09 11:27:56;;;;;;;10.73;5.50;;;21.30;71.10;;;;;;6249575;22;20082;-62
2023/06/09 11:30:24;;;;;;;15.65;7.45;;;21.60;70.60;;;;;;6275466;22;20003;-65
2023/06/09 11:32:53;;;;;;;12.55;6.03;;;21.80;69.40;;;;;;6275361;22;20425;-63
2023/06/09 11:35:45;;;;;;;13.43;7.10;;;21.90;68.50;;;;;;6275614;22;20002;-63
2023/06/09 11:38:19;;;;;;;12.95;5.65;;;22.00;67.80;;;;;;6274452;22;20085;-64
2023/06/09 11:40:52;;;;;;;16.42;5.63;;;22.10;67.70;;;;;;6274854;22;19999;-65
2023/06/09 11:43:21;;;;;;;15.52;6.03;;;22.20;67.30;;;;;;6275544;22;20031;-64
2023/06/09 11:45:47;;;;;;;13.48;6.47;;;22.30;67.20;;;;;;6277454;22;20067;-65
2023/06/09 11:48:13;;;;;;;12.80;5.72;;;22.40;67.10;;;;;;6276782;22;20006;-63
2023/06/09 11:50:44;;;;;;;15.88;6.43;;;22.60;67.00;;;;;;6276742;22;20098;-64
2023/06/09 11:53:11;;;;;;;12.23;6.45;;;22.70;66.20;;;;;;6277420;22;19992;-65
2023/06/09 11:55:37;;;;;;;13.07;7.20;;;22.90;65.90;;;;;;6276724;22;20418;-64
2023/06/09 11:58:05;;;;;;;16.20;6.68;;;23.10;65.30;;;;;;6276435;22;19998;-65
2023/06/09 12:00:36;;;;;;;13.35;6.45;;;23.30;64.70;;;;;;6277052;22;20045;-65
2023/06/09 12:03:02;;;;;;;10.68;6.78;;;23.40;64.10;;;;;;6277267;22;20022;-63
2023/06/09 12:05:28;;;;;;;15.32;6.30;;;23.40;63.60;;;;;;6277267;22;20019;-63
2023/06/09 12:07:55;;;;;;;15.10;6.32;;;23.40;63.40;;;;;;6274678;22;20043;-65
2023/06/09 12:10:24;;;;;;;10.98;6.72;;;23.40;62.90;;;;;;6277246;22;19996;-65
2023/06/09 12:12:54;;;;;;;15.65;7.72;;;23.40;63.20;;;;;;6276476;22;20400;-64
2023/06/09 12:15:22;;;;;;;12.45;6.68;;;23.50;63.30;;;;;;6277669;22;20006;-66
2023/06/09 12:17:53;;;;;;;14.40;6.47;;;23.50;62.90;;;;;;6277282;22;20038;-65
2023/06/09 12:20:25;;;;;;;11.93;5.78;;;23.40;62.80;;;;;;6276912;22;20268;-65
2023/06/09 12:23:00;;;;;;;13.60;7.00;;;23.50;63.30;;;;;;6274975;22;20007;-65
2023/06/09 12:25:30;;;;;;;12.82;6.65;;;23.70;62.90;;;;;;6277169;22;20006;-64
2023/06/09 12:28:11;;;;;;;;;;;23.70;62.30;;;;;;6277490;22;19992;-65
2023/06/09 12:30:45;;;;;;;12.93;6.40;;;23.70;62.40;;;;;;6277179;22;19911;-64
2023/06/09 12:33:12;;;;;;;16.55;6.75;;;23.80;62.10;;;;;;6276528;22;20003;-65
2023/06/09 12:35:39;;;;;;;9.90;6.05;;;23.70;61.60;;;;;;6274963;22;20007;-65
2023/06/09 12:38:18;;;;;;;11.85;6.35;;;23.50;61.30;;;;;;6274821;22;19992;-64
2023/06/09 12:40:55;;;;;;;10.02;5.70;;;23.30;61.10;;;;;;6274864;22;20034;-65